Huvudsida
METAR-TAF:

METAR-TAF

Flygplatser :

Rabah Bitat Annaba Airport

Annaba, Algeriet

latitud: 36-50N, longitud: 007-49E, höjd: 4 m

Aktuellt väderrapport

Denna rapport gjordes för 14 minuter sedan, klockan 19:30 UTC
Vind 4 kt från syd
Temperatur 13°C
Fuktighet 88%
Tryck 1021 hPa
Sikt 10 km eller mer
Få moln på en höjd av 2000 ft

METAR: DABB 281930Z 17004KT 9999 FEW020 13/11 Q1021

Tid: 20:44 (19:44 UTC)

Väderprognos

Denna rapport gjordes för 2 timmar och 44 minuter sedan, klockan 17:00 UTC
Prognos gäller från 28 kl. 18 UTC till 29 kl. 18 UTC
Vind 12 kt från nordväst
Sikt 10 km eller mer
Inga moln under 1 500 m eller inga cumulonimbus
Blir
från 28 kl. 19 UTC till 28 kl. 20 UTC
Vind 6 kt från syd
Sannolikhet 30% :
Temporärt
från 29 kl. 01 UTC till 29 kl. 07 UTC
Sikt: 2000 m
Brutna moln på en höjd av 1000 ft
fuktdis

TAF: DABB 281700Z 2818/2918 32012KT CAVOK BECMG 2819/2820 19006KT PROB30 TEMPO 2901/2907 2000 BR BKN010

Aktuella väderrapporter och prognoser från 4000 flygplatser (METAR- och TAF-rapporter).

De tillgängliga stationerna syns som gula och röda prickar på kartan.

För musen över prickarna för att se namnen på stationerna.

Klicka sedan för att få väderrapporter och prognoser.

För att ändra kartan: Klicka på de gröna knapparna med ett svart kors på för att zooma in; den gröna knappen med ett streck på för att zooma ut; eller på de gröna pilarna för angränsande kartor.


METAR-TAF: